createdAt,value
2022-08-10T00:00:22.404Z,45.30
2022-08-10T00:10:26.406Z,45.40
2022-08-10T00:20:28.198Z,45.60
2022-08-10T00:30:29.865Z,45.90
2022-08-10T00:40:37.048Z,46.30
2022-08-10T00:50:39.414Z,47.50
2022-08-10T01:00:43.058Z,47.90
2022-08-10T01:10:56.219Z,47.80
2022-08-10T01:21:16.481Z,48.20
2022-08-10T01:31:23.361Z,48.70
2022-08-10T01:41:29.360Z,49.90
2022-08-10T01:51:54.977Z,51.30
2022-08-10T02:02:09.856Z,52.20
2022-08-10T02:12:15.699Z,52.50
2022-08-10T02:22:37.482Z,53.10
2022-08-10T02:32:42.094Z,52.70
2022-08-10T02:45:18.653Z,52.70
2022-08-10T02:53:54.298Z,53.20
2022-08-10T03:04:09.082Z,53.50
2022-08-10T03:14:12.149Z,53.90
2022-08-10T03:24:30.442Z,54.00
2022-08-10T03:34:36.327Z,54.60
2022-08-10T03:44:40.878Z,54.90
2022-08-10T03:54:43.209Z,55.00
2022-08-10T04:04:44.844Z,55.60
2022-08-10T04:14:49.860Z,56.00
2022-08-10T04:24:58.686Z,56.30
2022-08-10T04:35:02.624Z,56.30
2022-08-10T04:45:11.746Z,56.50
2022-08-10T04:55:13.420Z,56.50
2022-08-10T05:05:15.078Z,56.60
2022-08-10T05:15:19.523Z,56.80
2022-08-10T05:25:21.314Z,57.00
2022-08-10T05:35:23.257Z,56.90
2022-08-10T05:45:27.309Z,57.00
2022-08-10T05:55:31.353Z,56.70
2022-08-10T06:05:37.132Z,56.20
2022-08-10T06:15:50.637Z,56.00
2022-08-10T06:26:11.934Z,55.30
2022-08-10T06:36:16.676Z,54.90
